Time;durP1;ratioP1;P1;durP2;ratioP2;P2;SDS_P1;SDS_P2;PMS_P1;PMS_P2;Temp;Humidity;BMP_temperature;BMP_pressure;BME280_temperature;BME280_humidity;BME280_pressure;Samples;Min_cycle;Max_cycle;Signal;HPM_P1;HPM_P2
2022/01/24 00:02:07;;;;;;;20.23;13.20;;;;;;;;;;5052842;28;20024;-65
2022/01/24 00:04:32;;;;;;;23.63;13.55;;;;;;;;;;5052976;28;20424;-64
2022/01/24 00:06:58;;;;;;;21.27;12.93;;;;;;;;;;5052763;28;20056;-65
2022/01/24 00:09:23;;;;;;;21.02;12.50;;;;;;;;;;5052924;28;20017;-65
2022/01/24 00:28:05;;;;;;;24.40;14.23;;;;;;;;;;5052504;28;20031;-65
2022/01/24 00:30:31;;;;;;;30.20;16.40;;;;;;;;;;5052301;28;20029;-65
2022/01/24 00:32:56;;;;;;;27.40;15.05;;;;;;;;;;5052247;28;20033;-64
2022/01/24 00:35:22;;;;;;;30.05;15.95;;;;;;;;;;5052314;28;20175;-64
2022/01/24 00:37:47;;;;;;;28.95;15.27;;;;;;;;;;5052180;28;20087;-65
2022/01/24 00:40:13;;;;;;;23.10;14.10;;;;;;;;;;5052265;28;20033;-65
2022/01/24 00:45:52;;;;;;;19.80;12.30;;;;;;;;;;5052213;28;20025;-65
2022/01/24 00:48:24;;;;;;;22.25;11.93;;;;;;;;;;5051313;28;20032;-64
2022/01/24 00:55:58;;;;;;;19.13;10.63;;;;;;;;;;5051999;28;20048;-65
2022/01/24 00:58:24;;;;;;;20.30;11.40;;;;;;;;;;5051977;28;20031;-64
2022/01/24 01:00:50;;;;;;;19.90;11.63;;;;;;;;;;5051886;28;20251;-65
2022/01/24 01:03:17;;;;;;;23.08;13.27;;;;;;;;;;5051703;28;20190;-65
2022/01/24 01:18:54;;;;;;;24.58;12.95;;;;;;;;;;5051516;28;20103;-65
2022/01/24 01:21:19;;;;;;;24.95;12.98;;;;;;;;;;5051569;28;20029;-65
2022/01/24 01:23:53;;;;;;;18.92;10.55;;;;;;;;;;5051205;28;20028;-65
2022/01/24 01:29:01;;;;;;;22.58;11.35;;;;;;;;;;5051284;28;20024;-65
2022/01/24 01:34:57;;;;;;;18.85;10.15;;;;;;;;;;5049653;28;20068;-65
2022/01/24 01:55:42;;;;;;;17.08;8.82;;;;;;;;;;5050931;28;20540;-65
2022/01/24 01:58:11;;;;;;;19.42;9.40;;;;;;;;;;5050677;28;20017;-64
2022/01/24 02:00:39;;;;;;;16.85;9.75;;;;;;;;;;5049608;28;20036;-64
2022/01/24 02:03:05;;;;;;;19.98;9.95;;;;;;;;;;5050597;28;20420;-65
2022/01/24 02:05:30;;;;;;;17.33;9.25;;;;;;;;;;5050745;28;20021;-65
2022/01/24 02:07:56;;;;;;;18.88;10.23;;;;;;;;;;5050550;28;20533;-65
2022/01/24 02:10:23;;;;;;;15.98;9.65;;;;;;;;;;5050659;28;20055;-66
2022/01/24 02:12:51;;;;;;;18.35;10.02;;;;;;;;;;5050244;28;20507;-65
2022/01/24 02:15:26;;;;;;;15.45;9.00;;;;;;;;;;5050221;28;20036;-65
2022/01/24 02:21:26;;;;;;;15.93;8.90;;;;;;;;;;5050373;28;20025;-65
2022/01/24 02:25:52;;;;;;;16.60;8.90;;;;;;;;;;5050462;28;20025;-65
2022/01/24 02:28:20;;;;;;;14.52;8.98;;;;;;;;;;5050243;28;20033;-65
2022/01/24 02:31:04;;;;;;;14.88;8.43;;;;;;;;;;5050111;28;20029;-64
2022/01/24 02:33:29;;;;;;;13.07;7.63;;;;;;;;;;5049959;28;20021;-65
2022/01/24 02:35:55;;;;;;;14.65;8.20;;;;;;;;;;5050361;28;20017;-64
2022/01/24 02:46:01;;;;;;;14.80;7.88;;;;;;;;;;5050303;28;20577;-65
2022/01/24 02:48:59;;;;;;;16.38;8.13;;;;;;;;;;5050296;28;20067;-64
2022/01/24 02:51:59;;;;;;;15.60;7.97;;;;;;;;;;5050007;28;20597;-64
2022/01/24 02:54:24;;;;;;;11.85;7.50;;;;;;;;;;5049602;28;20048;-65
2022/01/24 02:56:50;;;;;;;15.88;8.45;;;;;;;;;;5050070;28;20027;-65
2022/01/24 02:59:16;;;;;;;16.85;8.18;;;;;;;;;;5049951;28;20067;-65
2022/01/24 03:01:43;;;;;;;14.35;7.93;;;;;;;;;;5050002;28;20107;-64
2022/01/24 03:04:09;;;;;;;13.75;7.25;;;;;;;;;;5049677;28;20021;-65
2022/01/24 03:06:34;;;;;;;12.90;7.55;;;;;;;;;;5049802;28;20400;-63
2022/01/24 03:09:00;;;;;;;15.23;10.00;;;;;;;;;;5049946;28;20623;-64
2022/01/24 03:11:27;;;;;;;35.90;20.05;;;;;;;;;;5051008;28;20021;-63
2022/01/24 03:13:53;;;;;;;35.97;19.17;;;;;;;;;;5054000;28;20100;-65
2022/01/24 03:16:19;;;;;;;26.55;15.70;;;;;;;;;;5053847;28;20588;-63
2022/01/24 03:18:44;;;;;;;22.90;12.77;;;;;;;;;;5053732;28;20032;-64
2022/01/24 03:21:10;;;;;;;20.58;10.68;;;;;;;;;;5053719;28;20048;-65
2022/01/24 03:23:35;;;;;;;15.13;8.32;;;;;;;;;;5053510;28;20016;-65
2022/01/24 03:26:01;;;;;;;15.23;7.93;;;;;;;;;;5053648;28;20025;-65
2022/01/24 03:28:27;;;;;;;13.70;8.00;;;;;;;;;;5053680;28;20048;-65
2022/01/24 03:30:52;;;;;;;15.38;7.45;;;;;;;;;;5053509;28;20025;-64
2022/01/24 03:33:18;;;;;;;15.20;7.32;;;;;;;;;;5053505;28;20025;-65
2022/01/24 03:35:43;;;;;;;13.93;7.03;;;;;;;;;;5053642;28;20125;-65
2022/01/24 03:38:11;;;;;;;13.85;6.90;;;;;;;;;;5053227;28;20111;-65
2022/01/24 03:40:36;;;;;;;12.15;7.07;;;;;;;;;;5053038;28;20025;-64
2022/01/24 03:43:02;;;;;;;12.32;6.80;;;;;;;;;;5053583;28;20116;-65
2022/01/24 03:46:35;;;;;;;13.93;6.78;;;;;;;;;;5051654;28;20099;-65
2022/01/24 03:48:40;;;;;;;16.33;7.72;;;;;;;;;;5052589;28;20400;-65
2022/01/24 03:51:06;;;;;;;12.50;6.28;;;;;;;;;;5053271;28;20028;-63
2022/01/24 03:53:31;;;;;;;13.52;6.80;;;;;;;;;;5053066;28;20025;-65
2022/01/24 03:55:57;;;;;;;14.98;7.15;;;;;;;;;;5053026;28;20024;-65
2022/01/24 03:58:22;;;;;;;16.48;7.45;;;;;;;;;;5053014;28;20453;-65
2022/01/24 04:00:48;;;;;;;14.88;7.50;;;;;;;;;;5052833;28;20485;-65
2022/01/24 04:03:14;;;;;;;16.42;6.97;;;;;;;;;;5053024;28;20032;-65
2022/01/24 04:05:40;;;;;;;12.55;6.60;;;;;;;;;;5052651;28;20029;-64
2022/01/24 04:08:06;;;;;;;13.88;6.95;;;;;;;;;;5052570;28;20025;-65
2022/01/24 04:10:41;;;;;;;13.55;6.97;;;;;;;;;;5054656;28;20207;-65
2022/01/24 04:13:19;;;;;;;12.65;6.40;;;;;;;;;;5052616;28;20491;-64
2022/01/24 04:15:58;;;;;;;11.32;5.90;;;;;;;;;;5052726;28;20029;-64
2022/01/24 04:23:39;;;;;;;12.82;6.65;;;;;;;;;;5051570;28;20064;-65
2022/01/24 04:26:05;;;;;;;13.60;6.70;;;;;;;;;;5052579;28;20025;-64
2022/01/24 04:28:30;;;;;;;15.02;7.05;;;;;;;;;;5052318;28;20033;-65
2022/01/24 04:30:56;;;;;;;17.55;8.10;;;;;;;;;;5052289;28;20024;-65
2022/01/24 04:33:21;;;;;;;15.57;7.88;;;;;;;;;;5052345;28;20063;-65
2022/01/24 04:35:47;;;;;;;14.48;7.28;;;;;;;;;;5052199;28;20025;-65
2022/01/24 04:38:12;;;;;;;16.45;7.95;;;;;;;;;;5052381;28;20068;-64
2022/01/24 04:40:38;;;;;;;18.45;8.68;;;;;;;;;;5052057;28;20029;-64
2022/01/24 04:43:35;;;;;;;17.67;7.20;;;;;;;;;;5052197;28;20104;-65
2022/01/24 04:51:06;;;;;;;15.70;6.70;;;;;;;;;;5052046;28;20381;-64
2022/01/24 04:56:05;;;;;;;11.25;5.95;;;;;;;;;;5052185;28;20442;-65
2022/01/24 04:58:31;;;;;;;15.48;6.10;;;;;;;;;;5052138;28;20025;-64
2022/01/24 05:00:56;;;;;;;12.15;6.25;;;;;;;;;;5052105;28;20592;-65
2022/01/24 05:03:22;;;;;;;14.02;6.80;;;;;;;;;;5051940;28;20048;-65
2022/01/24 05:05:49;;;;;;;12.98;5.63;;;;;;;;;;5051622;28;20103;-65
2022/01/24 05:08:15;;;;;;;12.88;6.10;;;;;;;;;;5051537;28;20074;-64
2022/01/24 05:10:55;;;;;;;12.07;6.00;;;;;;;;;;5051705;28;20090;-66
2022/01/24 05:24:08;;;;;;;9.63;5.32;;;;;;;;;;5051343;28;20029;-65
2022/01/24 05:26:34;;;;;;;11.30;5.10;;;;;;;;;;5051270;28;20029;-64
2022/01/24 05:28:59;;;;;;;10.82;4.88;;;;;;;;;;5050959;28;20029;-65
2022/01/24 05:31:25;;;;;;;10.07;5.22;;;;;;;;;;5051379;28;20116;-66
2022/01/24 05:33:50;;;;;;;8.88;4.70;;;;;;;;;;5051228;28;20025;-65
2022/01/24 05:36:15;;;;;;;9.45;5.20;;;;;;;;;;5051370;28;20035;-65
2022/01/24 05:38:41;;;;;;;12.57;5.35;;;;;;;;;;5051036;28;20508;-65
2022/01/24 05:41:06;;;;;;;14.25;6.75;;;;;;;;;;5051163;28;20491;-64
2022/01/24 05:43:32;;;;;;;10.15;5.47;;;;;;;;;;5051029;28;20373;-64
2022/01/24 05:45:57;;;;;;;9.38;5.55;;;;;;;;;;5050575;28;20057;-64
2022/01/24 05:48:23;;;;;;;10.43;5.40;;;;;;;;;;5050799;28;20046;-63
2022/01/24 05:50:48;;;;;;;9.90;4.78;;;;;;;;;;5050819;28;20025;-64
2022/01/24 05:53:14;;;;;;;11.77;5.40;;;;;;;;;;5050882;28;20029;-64
2022/01/24 05:55:39;;;;;;;9.88;4.95;;;;;;;;;;5050712;28;20025;-64
2022/01/24 05:58:05;;;;;;;9.30;4.68;;;;;;;;;;5050808;28;20044;-65
2022/01/24 06:00:30;;;;;;;8.95;4.70;;;;;;;;;;5050450;28;20029;-64
2022/01/24 06:02:56;;;;;;;7.25;4.32;;;;;;;;;;5050583;28;20013;-65
2022/01/24 06:05:21;;;;;;;11.38;5.15;;;;;;;;;;5050308;28;20040;-66
2022/01/24 06:07:49;;;;;;;8.57;4.93;;;;;;;;;;5050451;28;20056;-64
2022/01/24 06:10:15;;;;;;;10.98;4.95;;;;;;;;;;5050846;28;20025;-63
2022/01/24 06:12:40;;;;;;;9.93;4.70;;;;;;;;;;5050370;28;20062;-65
2022/01/24 06:15:06;;;;;;;9.07;5.35;;;;;;;;;;5050299;28;20480;-63
2022/01/24 06:17:32;;;;;;;8.07;4.90;;;;;;;;;;5050505;28;20501;-64
2022/01/24 06:19:58;;;;;;;12.52;4.82;;;;;;;;;;5050321;28;20032;-65
2022/01/24 06:22:23;;;;;;;10.68;5.05;;;;;;;;;;5050412;28;20071;-65
2022/01/24 06:24:48;;;;;;;11.98;5.07;;;;;;;;;;5050044;28;20025;-65
2022/01/24 06:27:14;;;;;;;7.82;4.97;;;;;;;;;;5050297;28;20025;-65
2022/01/24 06:29:40;;;;;;;10.02;5.03;;;;;;;;;;5050561;28;20029;-64
2022/01/24 06:32:05;;;;;;;7.68;4.60;;;;;;;;;;5050306;28;20036;-64
2022/01/24 06:34:31;;;;;;;8.80;4.53;;;;;;;;;;5050312;28;20032;-65
2022/01/24 06:36:56;;;;;;;8.60;4.80;;;;;;;;;;5050286;28;20537;-64
2022/01/24 06:39:22;;;;;;;9.90;4.95;;;;;;;;;;5049835;28;20048;-65
2022/01/24 06:42:03;;;;;;;10.18;4.85;;;;;;;;;;5049817;28;20021;-65
2022/01/24 06:44:29;;;;;;;10.15;4.65;;;;;;;;;;5049660;28;20401;-65
2022/01/24 06:46:54;;;;;;;9.75;4.50;;;;;;;;;;5048259;28;20033;-64
2022/01/24 06:49:20;;;;;;;8.35;4.70;;;;;;;;;;5050039;28;20670;-65
2022/01/24 06:51:45;;;;;;;8.30;4.57;;;;;;;;;;5049931;28;20033;-65
2022/01/24 06:54:10;;;;;;;10.02;4.38;;;;;;;;;;5050072;28;20112;-65
2022/01/24 06:56:36;;;;;;;7.82;4.50;;;;;;;;;;5049688;28;20033;-65
2022/01/24 06:59:01;;;;;;;8.65;4.95;;;;;;;;;;5049644;28;20116;-66
2022/01/24 07:01:27;;;;;;;12.38;6.45;;;;;;;;;;5049691;28;20032;-65
2022/01/24 07:03:52;;;;;;;10.60;5.25;;;;;;;;;;5049891;28;20025;-66
2022/01/24 07:06:18;;;;;;;10.95;5.57;;;;;;;;;;5049877;28;20113;-66
2022/01/24 07:08:43;;;;;;;13.98;5.97;;;;;;;;;;5049771;28;20029;-66
2022/01/24 07:11:08;;;;;;;15.75;6.85;;;;;;;;;;5050283;28;20400;-66
2022/01/24 07:13:34;;;;;;;14.23;7.43;;;;;;;;;;5049772;28;20074;-68
2022/01/24 07:16:03;;;;;;;25.38;10.25;;;;;;;;;;5049659;28;20029;-66
2022/01/24 07:21:01;;;;;;;21.58;8.90;;;;;;;;;;5049426;28;20037;-65
2022/01/24 07:23:27;;;;;;;21.60;10.25;;;;;;;;;;5049511;28;20035;-66
2022/01/24 07:25:52;;;;;;;25.30;10.57;;;;;;;;;;5049510;28;20047;-65
2022/01/24 07:28:18;;;;;;;24.83;10.60;;;;;;;;;;5049788;28;20040;-64
2022/01/24 07:30:45;;;;;;;21.67;10.13;;;;;;;;;;5049589;28;20388;-65
2022/01/24 07:33:11;;;;;;;22.30;10.50;;;;;;;;;;5049575;28;20059;-64
2022/01/24 07:35:36;;;;;;;25.13;11.05;;;;;;;;;;5049475;28;20031;-66
2022/01/24 07:38:05;;;;;;;19.63;9.57;;;;;;;;;;5049119;28;20135;-64
2022/01/24 07:40:32;;;;;;;19.70;9.43;;;;;;;;;;5049258;28;20086;-66
2022/01/24 07:43:18;;;;;;;17.60;9.20;;;;;;;;;;5049598;28;20021;-64
2022/01/24 07:45:46;;;;;;;16.40;8.82;;;;;;;;;;5048979;28;20374;-65
2022/01/24 07:48:14;;;;;;;16.38;8.05;;;;;;;;;;5049543;28;20516;-64
2022/01/24 07:50:42;;;;;;;11.13;5.95;;;;;;;;;;5049349;28;20048;-64
2022/01/24 07:53:09;;;;;;;15.48;6.57;;;;;;;;;;5049443;28;20028;-64
2022/01/24 07:55:34;;;;;;;12.65;6.88;;;;;;;;;;5048936;28;20058;-64
2022/01/24 07:58:00;;;;;;;9.43;6.05;;;;;;;;;;5049755;28;20021;-64
2022/01/24 08:00:26;;;;;;;12.70;7.00;;;;;;;;;;5052705;28;20029;-64
2022/01/24 08:02:52;;;;;;;12.18;6.57;;;;;;;;;;5052360;28;20408;-66
2022/01/24 08:05:18;;;;;;;15.02;6.82;;;;;;;;;;5050988;28;20052;-67
2022/01/24 08:07:43;;;;;;;11.93;5.88;;;;;;;;;;5050393;28;20033;-65
2022/01/24 08:10:09;;;;;;;10.77;5.68;;;;;;;;;;5050654;28;20029;-65
2022/01/24 08:12:38;;;;;;;9.55;4.90;;;;;;;;;;5051153;28;20029;-66
2022/01/24 08:15:04;;;;;;;13.30;6.13;;;;;;;;;;5051082;28;20029;-66
2022/01/24 08:17:30;;;;;;;11.93;5.30;;;;;;;;;;5051353;28;20104;-65
2022/01/24 08:19:56;;;;;;;12.02;5.80;;;;;;;;;;5051067;28;20044;-64
2022/01/24 08:22:22;;;;;;;13.75;5.40;;;;;;;;;;5051751;28;20029;-64
2022/01/24 08:24:49;;;;;;;8.35;5.10;;;;;;;;;;5052482;28;20653;-64
2022/01/24 08:27:15;;;;;;;9.77;5.43;;;;;;;;;;5052257;28;20393;-65
2022/01/24 08:29:43;;;;;;;10.18;5.03;;;;;;;;;;5052145;28;20108;-65
2022/01/24 08:32:09;;;;;;;11.18;5.13;;;;;;;;;;5052283;28;20073;-64
2022/01/24 08:34:35;;;;;;;11.30;5.40;;;;;;;;;;5052716;28;20028;-65
2022/01/24 08:37:00;;;;;;;9.40;5.40;;;;;;;;;;5052139;28;20496;-65
2022/01/24 08:39:26;;;;;;;10.60;5.65;;;;;;;;;;5051951;28;20051;-65
2022/01/24 08:46:49;;;;;;;11.10;5.90;;;;;;;;;;5051852;28;20112;-64
2022/01/24 08:49:15;;;;;;;14.98;5.55;;;;;;;;;;5052477;28;20330;-67
2022/01/24 08:51:41;;;;;;;10.73;5.55;;;;;;;;;;5052313;28;20025;-65
2022/01/24 08:54:08;;;;;;;11.80;5.80;;;;;;;;;;5052014;28;20477;-65
2022/01/24 08:56:34;;;;;;;14.73;6.05;;;;;;;;;;5051831;28;20017;-66
2022/01/24 08:59:00;;;;;;;10.02;5.68;;;;;;;;;;5051677;28;20025;-65
2022/01/24 09:01:26;;;;;;;11.13;5.45;;;;;;;;;;5051878;28;20473;-67
2022/01/24 09:03:52;;;;;;;9.45;5.80;;;;;;;;;;5051649;28;20024;-65
2022/01/24 09:06:18;;;;;;;9.35;5.28;;;;;;;;;;5051515;28;20050;-66
2022/01/24 09:08:44;;;;;;;12.70;5.35;;;;;;;;;;5051476;28;20031;-66
2022/01/24 09:11:10;;;;;;;12.75;5.70;;;;;;;;;;5051622;28;20025;-67
2022/01/24 09:13:36;;;;;;;10.05;5.18;;;;;;;;;;5051639;28;20036;-67
2022/01/24 09:16:02;;;;;;;8.50;5.30;;;;;;;;;;5051357;28;20491;-66
2022/01/24 09:18:29;;;;;;;12.23;5.65;;;;;;;;;;5051787;28;20258;-67
2022/01/24 09:20:55;;;;;;;11.35;5.43;;;;;;;;;;5051817;28;20035;-67
2022/01/24 09:23:22;;;;;;;10.98;5.50;;;;;;;;;;5051437;28;20029;-66
2022/01/24 09:25:48;;;;;;;8.32;5.15;;;;;;;;;;5051437;28;20487;-66
2022/01/24 09:28:14;;;;;;;11.35;5.38;;;;;;;;;;5051334;28;20107;-66
2022/01/24 09:30:40;;;;;;;10.30;5.22;;;;;;;;;;5051029;28;20076;-66
2022/01/24 09:33:05;;;;;;;12.50;6.03;;;;;;;;;;5051380;28;20031;-66
2022/01/24 09:35:31;;;;;;;15.07;6.50;;;;;;;;;;5051193;28;20094;-66
2022/01/24 09:37:57;;;;;;;9.98;5.93;;;;;;;;;;5050948;28;20103;-68
2022/01/24 09:40:23;;;;;;;12.52;6.10;;;;;;;;;;5051011;28;20382;-67
2022/01/24 09:42:50;;;;;;;10.65;5.72;;;;;;;;;;5050866;28;20104;-66
2022/01/24 09:45:17;;;;;;;9.18;4.65;;;;;;;;;;5050856;28;20083;-66
2022/01/24 09:47:43;;;;;;;8.82;3.47;;;;;;;;;;5050783;28;20037;-66
2022/01/24 09:50:11;;;;;;;6.88;4.22;;;;;;;;;;5051327;28;20063;-66
2022/01/24 09:52:42;;;;;;;12.50;4.35;;;;;;;;;;5050977;28;20039;-66
2022/01/24 09:55:08;;;;;;;;;;;;;;;;;;5051372;28;20109;-64
2022/01/24 09:57:36;;;;;;;12.98;4.80;;;;;;;;;;5050631;28;19916;-66
2022/01/24 10:00:04;;;;;;;9.32;4.50;;;;;;;;;;5050616;28;20469;-66
2022/01/24 10:02:29;;;;;;;16.58;5.40;;;;;;;;;;5050379;28;20029;-65
2022/01/24 10:05:19;;;;;;;28.42;6.95;;;;;;;;;;5050503;28;20021;-65
2022/01/24 10:07:56;;;;;;;12.68;4.95;;;;;;;;;;5050594;28;20155;-66
2022/01/24 10:10:51;;;;;;;11.52;4.97;;;;;;;;;;5050463;28;20033;-66
2022/01/24 10:16:33;;;;;;;9.88;5.05;;;;;;;;;;5050299;28;20044;-67
2022/01/24 10:19:01;;;;;;;12.43;4.68;;;;;;;;;;5050308;28;20031;-66
2022/01/24 10:21:27;;;;;;;14.30;4.90;;;;;;;;;;5049449;28;20459;-66
2022/01/24 10:23:52;;;;;;;12.70;4.72;;;;;;;;;;5050430;28;20090;-66
2022/01/24 10:26:18;;;;;;;6.10;3.80;;;;;;;;;;5050349;28;20025;-65
2022/01/24 10:28:45;;;;;;;10.63;4.50;;;;;;;;;;5050221;28;20024;-66
2022/01/24 10:31:23;;;;;;;12.63;3.90;;;;;;;;;;5050213;28;20021;-65
2022/01/24 10:36:41;;;;;;;11.07;4.03;;;;;;;;;;5049842;28;20042;-66
2022/01/24 10:39:11;;;;;;;11.10;3.63;;;;;;;;;;5049747;28;20080;-66
2022/01/24 10:42:09;;;;;;;15.90;4.00;;;;;;;;;;5049857;28;20131;-65
2022/01/24 10:44:36;;;;;;;8.82;3.20;;;;;;;;;;5049971;28;20029;-65
2022/01/24 10:47:22;;;;;;;7.85;3.15;;;;;;;;;;5049935;28;20021;-66
2022/01/24 10:49:49;;;;;;;7.53;2.97;;;;;;;;;;5050025;28;20027;-66
2022/01/24 10:52:21;;;;;;;6.97;2.90;;;;;;;;;;5050134;28;20485;-66
2022/01/24 10:54:48;;;;;;;10.93;3.50;;;;;;;;;;5049986;28;20065;-66
2022/01/24 10:57:40;;;;;;;12.32;3.58;;;;;;;;;;5049667;28;20033;-66
2022/01/24 11:00:08;;;;;;;9.55;3.60;;;;;;;;;;5048903;28;20112;-65
2022/01/24 11:02:41;;;;;;;7.50;3.70;;;;;;;;;;5049901;28;20036;-66
2022/01/24 11:05:17;;;;;;;10.75;4.07;;;;;;;;;;5049926;28;20414;-66
2022/01/24 11:08:03;;;;;;;7.95;3.80;;;;;;;;;;5049675;28;20546;-66
2022/01/24 11:10:49;;;;;;;9.85;3.90;;;;;;;;;;5049635;28;20029;-66
2022/01/24 11:13:19;;;;;;;8.95;3.25;;;;;;;;;;5049756;28;20385;-66
2022/01/24 11:15:55;;;;;;;7.72;3.25;;;;;;;;;;5049548;28;20029;-66
2022/01/24 11:18:22;;;;;;;7.90;3.17;;;;;;;;;;5049585;28;20036;-66
2022/01/24 11:20:48;;;;;;;6.93;2.80;;;;;;;;;;5049642;28;20485;-66
2022/01/24 11:23:20;;;;;;;8.35;3.15;;;;;;;;;;5049813;28;20027;-66
2022/01/24 11:25:48;;;;;;;8.73;3.25;;;;;;;;;;5049711;28;20092;-65
2022/01/24 11:28:13;;;;;;;8.18;2.83;;;;;;;;;;5049667;28;20021;-66
2022/01/24 11:31:01;;;;;;;7.40;3.08;;;;;;;;;;5049390;28;20031;-66
2022/01/24 11:33:37;;;;;;;6.97;3.05;;;;;;;;;;5052169;28;20079;-66
2022/01/24 11:36:05;;;;;;;8.50;3.40;;;;;;;;;;5053384;28;20017;-67
2022/01/24 11:38:43;;;;;;;8.57;3.42;;;;;;;;;;5053179;28;20043;-66
2022/01/24 11:41:32;;;;;;;5.28;3.03;;;;;;;;;;5053145;28;20608;-66
2022/01/24 11:44:06;;;;;;;6.88;3.03;;;;;;;;;;5053098;28;20029;-66
2022/01/24 11:49:16;;;;;;;7.22;2.75;;;;;;;;;;5053195;28;20423;-66
2022/01/24 11:51:44;;;;;;;5.93;2.50;;;;;;;;;;5053136;28;20033;-66
2022/01/24 11:55:00;;;;;;;8.52;2.35;;;;;;;;;;5052847;28;20029;-67
2022/01/24 11:57:37;;;;;;;9.98;2.55;;;;;;;;;;5052712;28;20017;-66
2022/01/24 12:00:06;;;;;;;6.05;2.55;;;;;;;;;;5052860;28;20033;-66
2022/01/24 12:02:52;;;;;;;8.10;2.70;;;;;;;;;;5052885;28;20455;-66
2022/01/24 12:05:26;;;;;;;6.53;2.45;;;;;;;;;;5052829;28;20035;-67
2022/01/24 12:07:59;;;;;;;4.63;2.15;;;;;;;;;;5052622;28;20594;-67
2022/01/24 12:10:26;;;;;;;7.13;2.85;;;;;;;;;;5052673;28;20028;-66
2022/01/24 12:13:02;;;;;;;6.63;2.65;;;;;;;;;;5052510;28;20083;-66
2022/01/24 12:15:36;;;;;;;6.43;2.50;;;;;;;;;;5052499;28;20017;-66
2022/01/24 12:18:22;;;;;;;4.93;2.60;;;;;;;;;;5052510;28;20350;-66
2022/01/24 12:20:51;;;;;;;6.30;2.50;;;;;;;;;;5052547;28;20578;-67
2022/01/24 12:23:16;;;;;;;6.57;2.55;;;;;;;;;;5052497;28;20025;-66
2022/01/24 12:26:08;;;;;;;5.45;2.80;;;;;;;;;;5052423;28;20032;-66
2022/01/24 12:28:42;;;;;;;4.43;2.47;;;;;;;;;;5052385;28;20557;-66
2022/01/24 12:31:09;;;;;;;6.47;2.40;;;;;;;;;;5052185;28;20036;-66
2022/01/24 12:33:40;;;;;;;8.50;2.70;;;;;;;;;;5052241;28;20040;-66
2022/01/24 12:36:27;;;;;;;7.22;2.28;;;;;;;;;;5052245;28;20025;-65
2022/01/24 12:38:56;;;;;;;7.20;2.80;;;;;;;;;;5051966;28;20045;-66
2022/01/24 12:41:34;;;;;;;10.60;2.97;;;;;;;;;;5052150;28;20055;-66
2022/01/24 12:46:29;;;;;;;7.32;2.40;;;;;;;;;;5052233;28;20024;-67
2022/01/24 12:48:59;;;;;;;7.10;2.47;;;;;;;;;;5052105;28;20029;-66
2022/01/24 12:51:27;;;;;;;7.60;2.40;;;;;;;;;;5051930;28;20055;-66
2022/01/24 12:53:54;;;;;;;9.02;2.35;;;;;;;;;;5051762;28;20555;-66
2022/01/24 12:56:28;;;;;;;6.03;2.13;;;;;;;;;;5052142;28;20086;-66
2022/01/24 12:58:54;;;;;;;7.35;2.28;;;;;;;;;;5051498;28;20175;-66
2022/01/24 13:01:21;;;;;;;6.90;2.55;;;;;;;;;;5052044;28;20021;-66
2022/01/24 13:03:58;;;;;;;4.55;2.30;;;;;;;;;;5051871;28;20033;-66
2022/01/24 13:06:31;;;;;;;6.93;2.78;;;;;;;;;;5051986;28;20090;-67
2022/01/24 13:09:11;;;;;;;5.65;2.67;;;;;;;;;;5051446;28;20029;-66
2022/01/24 13:11:50;;;;;;;5.88;2.20;;;;;;;;;;5051368;28;20025;-66
2022/01/24 13:14:24;;;;;;;6.22;2.47;;;;;;;;;;5051365;28;20488;-66
2022/01/24 13:25:14;;;;;;;6.90;2.35;;;;;;;;;;5051473;28;20083;-66
2022/01/24 13:27:42;;;;;;;3.75;2.10;;;;;;;;;;5051234;28;20488;-65
2022/01/24 13:30:25;;;;;;;4.93;2.35;;;;;;;;;;5050881;28;20051;-65
2022/01/24 13:32:57;;;;;;;5.03;2.08;;;;;;;;;;5051254;28;20025;-66
2022/01/24 13:35:29;;;;;;;4.13;2.30;;;;;;;;;;5051222;28;20037;-66
2022/01/24 13:38:12;;;;;;;10.02;2.33;;;;;;;;;;5050850;28;20550;-66
2022/01/24 13:40:54;;;;;;;5.93;2.30;;;;;;;;;;5051544;28;20040;-65
2022/01/24 13:43:38;;;;;;;5.07;2.20;;;;;;;;;;5051049;28;20032;-67
2022/01/24 13:46:12;;;;;;;5.95;2.50;;;;;;;;;;5050870;28;20025;-66
2022/01/24 13:48:48;;;;;;;6.35;2.22;;;;;;;;;;5050681;28;20576;-65
2022/01/24 13:51:20;;;;;;;7.28;2.10;;;;;;;;;;5050754;28;20036;-66
2022/01/24 13:53:48;;;;;;;4.88;2.00;;;;;;;;;;5050652;28;20029;-66
2022/01/24 13:56:28;;;;;;;5.68;2.08;;;;;;;;;;5050218;28;20036;-65
2022/01/24 13:59:02;;;;;;;5.28;2.35;;;;;;;;;;5050421;28;20228;-67
2022/01/24 14:01:29;;;;;;;6.20;2.20;;;;;;;;;;5050647;28;20048;-66
2022/01/24 14:03:56;;;;;;;5.75;2.20;;;;;;;;;;5050530;28;20130;-66
2022/01/24 14:06:21;;;;;;;5.75;2.10;;;;;;;;;;5050489;28;20025;-66
2022/01/24 14:08:47;;;;;;;6.80;2.30;;;;;;;;;;5050322;28;20029;-66
2022/01/24 14:11:15;;;;;;;5.75;2.03;;;;;;;;;;5050386;28;20400;-66
2022/01/24 14:13:47;;;;;;;6.70;2.28;;;;;;;;;;5050581;28;20033;-66
2022/01/24 14:19:28;;;;;;;6.07;2.20;;;;;;;;;;5050074;28;20112;-66
2022/01/24 14:22:14;;;;;;;4.55;2.05;;;;;;;;;;5050355;28;20058;-66
2022/01/24 14:24:54;;;;;;;5.38;2.20;;;;;;;;;;5050335;28;20447;-66
2022/01/24 14:27:38;;;;;;;3.90;1.90;;;;;;;;;;5049841;28;20361;-66
2022/01/24 14:30:34;;;;;;;4.38;2.10;;;;;;;;;;5050188;28;20071;-66
2022/01/24 14:33:13;;;;;;;6.65;1.83;;;;;;;;;;5049433;28;20546;-66
2022/01/24 14:35:50;;;;;;;6.45;2.00;;;;;;;;;;5050300;28;20499;-66
2022/01/24 14:38:36;;;;;;;5.22;2.22;;;;;;;;;;5049594;28;20516;-66
2022/01/24 14:41:10;;;;;;;7.30;2.53;;;;;;;;;;5049886;28;20655;-66
2022/01/24 14:46:45;;;;;;;8.02;2.30;;;;;;;;;;5050425;28;20081;-66
2022/01/24 14:49:14;;;;;;;5.47;2.25;;;;;;;;;;5049558;28;20032;-66
2022/01/24 14:51:42;;;;;;;5.18;2.30;;;;;;;;;;5049843;28;20037;-66
2022/01/24 14:54:13;;;;;;;4.75;2.30;;;;;;;;;;5049834;28;20025;-66
2022/01/24 14:56:41;;;;;;;6.40;2.60;;;;;;;;;;5049749;28;20052;-66
2022/01/24 14:59:07;;;;;;;5.88;2.58;;;;;;;;;;5049532;28;20116;-66
2022/01/24 15:01:33;;;;;;;5.30;2.15;;;;;;;;;;5049758;28;20361;-66
2022/01/24 15:03:59;;;;;;;5.18;2.30;;;;;;;;;;5049736;28;20518;-66
2022/01/24 15:06:25;;;;;;;6.55;2.30;;;;;;;;;;5049749;28;20206;-66
2022/01/24 15:08:53;;;;;;;7.20;2.92;;;;;;;;;;5053241;28;20078;-67
2022/01/24 15:11:21;;;;;;;4.22;2.50;;;;;;;;;;5053851;28;20036;-66
2022/01/24 15:14:01;;;;;;;7.85;3.10;;;;;;;;;;5053679;28;20488;-66
2022/01/24 15:16:37;;;;;;;5.93;2.88;;;;;;;;;;5053693;28;20501;-67
2022/01/24 15:27:06;;;;;;;6.50;2.70;;;;;;;;;;5053701;28;20025;-66
2022/01/24 15:29:33;;;;;;;7.43;2.97;;;;;;;;;;5053304;28;20029;-67
2022/01/24 15:32:03;;;;;;;9.45;3.00;;;;;;;;;;5053412;28;20040;-65
2022/01/24 15:34:32;;;;;;;7.32;3.00;;;;;;;;;;5053584;28;20025;-66
2022/01/24 15:36:58;;;;;;;5.27;2.70;;;;;;;;;;5053376;28;20029;-66
2022/01/24 15:39:24;;;;;;;7.43;3.30;;;;;;;;;;5052911;28;20049;-67
2022/01/24 15:42:01;;;;;;;9.80;3.13;;;;;;;;;;5053152;28;20092;-65
2022/01/24 15:49:37;;;;;;;5.63;3.70;;;;;;;;;;5053115;28;20033;-66
2022/01/24 15:52:03;;;;;;;9.30;3.83;;;;;;;;;;5053348;28;20104;-66
2022/01/24 15:54:31;;;;;;;7.90;4.20;;;;;;;;;;5053255;28;20029;-66
2022/01/24 15:59:40;;;;;;;7.57;3.83;;;;;;;;;;5053125;28;20035;-66
2022/01/24 16:02:05;;;;;;;10.02;4.20;;;;;;;;;;5052959;28;20033;-66
2022/01/24 16:04:31;;;;;;;8.95;3.85;;;;;;;;;;5052838;28;20027;-66
2022/01/24 16:06:56;;;;;;;8.73;3.58;;;;;;;;;;5053189;28;20083;-66
2022/01/24 16:09:22;;;;;;;9.68;3.47;;;;;;;;;;5052874;28;20017;-66
2022/01/24 16:11:48;;;;;;;7.65;3.50;;;;;;;;;;5052881;28;20025;-66
2022/01/24 16:14:14;;;;;;;7.38;3.50;;;;;;;;;;5052702;28;20044;-66
2022/01/24 16:16:40;;;;;;;6.85;3.38;;;;;;;;;;5052625;28;20025;-66
2022/01/24 16:19:06;;;;;;;7.97;3.50;;;;;;;;;;5051198;28;20086;-66
2022/01/24 16:21:46;;;;;;;5.35;3.13;;;;;;;;;;5052553;28;20029;-66
2022/01/24 16:26:58;;;;;;;10.23;3.30;;;;;;;;;;5030729;28;20041;-65
2022/01/24 16:29:25;;;;;;;5.95;3.25;;;;;;;;;;5052130;28;20037;-67
2022/01/24 16:31:51;;;;;;;5.63;3.05;;;;;;;;;;5052407;28;20025;-65
2022/01/24 16:34:18;;;;;;;10.10;3.40;;;;;;;;;;5052381;28;20029;-66
2022/01/24 16:36:44;;;;;;;6.90;3.10;;;;;;;;;;5052268;28;20053;-66
2022/01/24 16:39:15;;;;;;;7.85;3.30;;;;;;;;;;5051657;28;20049;-66
2022/01/24 16:41:54;;;;;;;5.93;3.58;;;;;;;;;;5051964;28;20025;-66
2022/01/24 16:47:07;;;;;;;5.47;3.28;;;;;;;;;;5052293;28;20055;-66
2022/01/24 16:49:46;;;;;;;7.00;3.75;;;;;;;;;;5051797;28;20029;-67
2022/01/24 16:52:13;;;;;;;8.80;4.47;;;;;;;;;;5051991;28;20071;-65
2022/01/24 16:54:43;;;;;;;6.75;3.92;;;;;;;;;;5051907;28;20031;-66
2022/01/24 16:57:09;;;;;;;18.80;5.53;;;;;;;;;;5051906;28;20036;-66
2022/01/24 16:59:36;;;;;;;20.90;7.95;;;;;;;;;;5051126;28;20362;-65
2022/01/24 17:02:03;;;;;;;21.30;8.40;;;;;;;;;;5051814;28;20458;-66
2022/01/24 17:04:29;;;;;;;19.58;7.68;;;;;;;;;;5051831;28;20027;-67
2022/01/24 17:06:54;;;;;;;15.88;7.28;;;;;;;;;;5051593;28;20116;-65
2022/01/24 17:09:21;;;;;;;14.32;6.78;;;;;;;;;;5051808;28;20499;-66
2022/01/24 17:11:53;;;;;;;15.38;6.90;;;;;;;;;;5051755;28;20017;-66
2022/01/24 17:14:19;;;;;;;16.23;8.27;;;;;;;;;;5051400;28;20105;-66
2022/01/24 17:16:47;;;;;;;19.90;9.18;;;;;;;;;;5051410;28;20175;-67
2022/01/24 17:19:13;;;;;;;24.92;12.45;;;;;;;;;;5051072;28;20495;-66
2022/01/24 17:21:41;;;;;;;25.67;12.93;;;;;;;;;;5051599;28;20021;-66
2022/01/24 17:24:08;;;;;;;30.17;16.05;;;;;;;;;;5051615;28;20031;-66